createdAt,value
2022-08-14T00:02:15.624Z,100229.47
2022-08-14T00:04:44.891Z,100224.69
2022-08-14T00:07:14.102Z,100216.50
2022-08-14T00:09:56.373Z,100214.63
2022-08-14T00:12:39.246Z,100218.22
2022-08-14T00:15:10.216Z,100211.53
2022-08-14T00:17:47.231Z,100204.69
2022-08-14T00:20:23.788Z,100201.59
2022-08-14T00:22:57.373Z,100199.72
2022-08-14T00:25:30.735Z,100191.75
2022-08-14T00:28:15.513Z,100188.78
2022-08-14T00:30:47.348Z,100191.97
2022-08-14T00:33:16.449Z,100182.22
2022-08-14T00:36:37.372Z,100178.28
2022-08-14T00:38:34.935Z,100179.03
2022-08-14T00:41:06.157Z,100183.13
2022-08-14T00:43:37.509Z,100177.94
2022-08-14T00:46:32.811Z,100182.38
2022-08-14T00:48:58.082Z,100175.03
2022-08-14T00:51:36.817Z,100178.94
2022-08-14T00:54:16.798Z,100171.91
2022-08-14T00:56:55.052Z,100171.91
2022-08-14T00:59:28.373Z,100173.66
2022-08-14T01:01:59.091Z,100166.41
2022-08-14T01:04:38.431Z,100162.69
2022-08-14T01:07:21.450Z,100152.91
2022-08-14T01:09:55.257Z,100142.72
2022-08-14T01:12:27.358Z,100140.47
2022-08-14T01:14:59.281Z,100135.63
2022-08-14T01:17:49.589Z,100130.38
2022-08-14T01:20:40.027Z,100127.44
2022-08-14T01:23:16.843Z,100119.81
2022-08-14T01:25:51.392Z,100129.16
2022-08-14T01:28:46.980Z,100118.94
2022-08-14T01:31:14.295Z,100123.16
2022-08-14T01:34:07.446Z,100122.72
2022-08-14T01:36:39.692Z,100124.03
2022-08-14T01:39:13.395Z,100130.47
2022-08-14T01:41:52.999Z,100131.72
2022-08-14T01:44:33.393Z,100127.50
2022-08-14T01:47:16.481Z,100126.16
2022-08-14T01:49:59.726Z,100121.72
2022-08-14T01:52:58.760Z,100129.69
2022-08-14T01:55:30.483Z,100121.13
2022-08-14T01:58:01.264Z,100116.75
2022-08-14T02:00:47.873Z,100110.28
2022-08-14T02:03:16.681Z,100107.84
2022-08-14T02:05:44.100Z,100108.97
2022-08-14T02:08:11.439Z,100103.75
2022-08-14T02:10:46.723Z,100103.41
2022-08-14T02:13:19.757Z,100103.31
2022-08-14T02:15:48.479Z,100093.38
2022-08-14T02:18:16.429Z,100090.22
2022-08-14T02:20:47.513Z,100093.22
2022-08-14T02:23:15.061Z,100094.81
2022-08-14T02:25:44.182Z,100086.91
2022-08-14T02:28:58.494Z,100083.91
2022-08-14T02:31:10.751Z,100071.41
2022-08-14T02:33:43.631Z,100075.28
2022-08-14T02:37:03.902Z,100072.53
2022-08-14T02:38:59.590Z,100074.50
2022-08-14T02:41:28.804Z,100066.75
2022-08-14T02:44:01.048Z,100069.19
2022-08-14T02:46:32.416Z,100063.41
2022-08-14T02:49:06.233Z,100062.94
2022-08-14T02:51:36.757Z,100057.22
2022-08-14T02:54:07.298Z,100048.38
2022-08-14T02:57:16.681Z,100049.63
2022-08-14T02:59:33.410Z,100052.72
2022-08-14T03:02:03.078Z,100057.72
2022-08-14T03:04:30.831Z,100055.41
2022-08-14T03:07:07.434Z,100058.09
2022-08-14T03:09:41.886Z,100061.50
2022-08-14T03:12:31.001Z,100052.44
2022-08-14T03:15:06.291Z,100065.25
2022-08-14T03:17:41.028Z,100062.38
2022-08-14T03:20:22.884Z,100058.84
2022-08-14T03:22:51.503Z,100058.28
2022-08-14T03:25:22.133Z,100062.53
2022-08-14T03:27:58.704Z,100055.72
2022-08-14T03:30:37.132Z,100057.38
2022-08-14T03:33:10.324Z,100045.09
2022-08-14T03:35:59.938Z,100043.91
2022-08-14T03:39:14.043Z,100053.22
2022-08-14T03:41:17.573Z,100051.19
2022-08-14T03:43:45.544Z,100057.19
2022-08-14T03:46:52.798Z,100056.41
2022-08-14T03:49:02.981Z,100059.69
2022-08-14T03:51:30.472Z,100065.91
2022-08-14T03:53:59.557Z,100073.00
2022-08-14T03:56:27.872Z,100079.09
2022-08-14T03:58:57.238Z,100077.53
2022-08-14T04:01:29.414Z,100081.50
2022-08-14T04:04:07.791Z,100080.53
2022-08-14T04:06:45.236Z,100080.53
2022-08-14T04:09:15.100Z,100094.03
2022-08-14T04:11:45.230Z,100090.41
2022-08-14T04:14:16.471Z,100093.34
2022-08-14T04:16:47.384Z,100088.66
2022-08-14T04:19:18.849Z,100086.50
2022-08-14T04:22:02.282Z,100095.66
2022-08-14T04:24:38.196Z,100089.78
2022-08-14T04:27:11.488Z,100089.72
2022-08-14T04:29:42.414Z,100085.41
2022-08-14T04:33:10.370Z,100071.81
2022-08-14T04:34:58.558Z,100073.84
2022-08-14T04:37:45.248Z,100073.34
2022-08-14T04:40:32.618Z,100066.97
2022-08-14T04:43:21.066Z,100052.94
2022-08-14T04:45:50.993Z,100050.06
2022-08-14T04:48:43.123Z,100059.69
2022-08-14T04:51:12.433Z,100045.56
2022-08-14T04:53:43.925Z,100042.19
2022-08-14T04:56:30.616Z,100033.81
2022-08-14T04:59:10.312Z,100034.59
2022-08-14T05:01:45.118Z,100032.13
2022-08-14T05:04:20.081Z,100027.72
2022-08-14T05:06:49.609Z,100024.09
2022-08-14T05:09:21.696Z,100024.84
2022-08-14T05:11:51.556Z,100017.88
2022-08-14T05:14:45.423Z,100023.75
2022-08-14T05:17:12.125Z,100035.97
2022-08-14T05:19:45.072Z,100052.53
2022-08-14T05:22:27.348Z,100049.25
2022-08-14T05:24:54.823Z,100044.75
2022-08-14T05:27:23.972Z,100059.84
2022-08-14T05:29:53.608Z,100060.19
2022-08-14T05:32:23.588Z,100051.59
2022-08-14T05:34:59.241Z,100061.72
2022-08-14T05:37:29.547Z,100048.50
2022-08-14T05:39:58.995Z,100030.66
2022-08-14T05:42:29.163Z,100036.44
2022-08-14T05:44:59.881Z,100045.13
2022-08-14T05:47:29.073Z,100037.31
2022-08-14T05:50:05.688Z,100012.47
2022-08-14T05:52:44.695Z,100014.41
2022-08-14T05:55:12.377Z,100014.88
2022-08-14T05:57:50.288Z,100018.16
2022-08-14T06:00:28.500Z,100027.03
2022-08-14T06:03:00.041Z,100022.66
2022-08-14T06:05:28.811Z,100019.59
2022-08-14T06:08:00.243Z,100028.09
2022-08-14T06:10:29.420Z,100027.34
2022-08-14T06:12:58.273Z,100027.91
2022-08-14T06:15:30.045Z,100029.22
2022-08-14T06:17:59.097Z,100026.59
2022-08-14T06:20:28.593Z,100023.41
2022-08-14T06:22:58.181Z,100020.31
2022-08-14T06:25:26.827Z,100025.25
2022-08-14T06:27:55.759Z,100024.00
2022-08-14T06:30:46.461Z,100010.22
2022-08-14T06:33:16.619Z,100016.41
2022-08-14T06:35:46.894Z,100027.16
2022-08-14T06:38:21.563Z,100027.88
2022-08-14T06:40:51.885Z,100040.16
2022-08-14T06:43:21.249Z,100036.78
2022-08-14T06:45:50.362Z,100034.84
2022-08-14T06:48:24.093Z,100036.94
2022-08-14T06:50:53.781Z,100046.38
2022-08-14T06:53:21.815Z,100037.81
2022-08-14T06:55:58.347Z,100036.19
2022-08-14T06:58:31.497Z,100048.50
2022-08-14T07:01:38.911Z,100050.34
2022-08-14T07:04:25.167Z,100049.94
2022-08-14T07:06:54.876Z,100046.03
2022-08-14T07:09:23.491Z,100051.44
2022-08-14T07:11:51.752Z,100053.25
2022-08-14T07:14:19.293Z,100049.31
2022-08-14T07:16:46.523Z,100060.53
2022-08-14T07:19:17.537Z,100048.97
2022-08-14T07:21:48.492Z,100060.69
2022-08-14T07:24:21.717Z,100049.91
2022-08-14T07:26:49.859Z,100053.59
2022-08-14T07:29:17.534Z,100046.41
2022-08-14T07:31:44.998Z,100035.53
2022-08-14T07:34:31.849Z,100041.25
2022-08-14T07:37:01.609Z,100050.75
2022-08-14T07:39:29.009Z,100053.97
2022-08-14T07:41:56.316Z,100058.47
2022-08-14T07:44:32.351Z,100050.81
2022-08-14T07:47:04.104Z,100043.88
2022-08-14T07:49:34.187Z,100037.53
2022-08-14T07:52:02.442Z,100030.56
2022-08-14T07:54:31.594Z,100027.94
2022-08-14T07:56:59.723Z,100028.31
2022-08-14T07:59:42.534Z,100030.38
2022-08-14T08:02:19.389Z,100029.66
2022-08-14T08:04:59.398Z,100041.81
2022-08-14T08:07:29.823Z,100040.56
2022-08-14T08:10:01.054Z,100039.16
2022-08-14T08:12:32.366Z,100034.28
2022-08-14T08:15:05.998Z,100036.13
2022-08-14T08:17:42.630Z,100035.53
2022-08-14T08:20:27.122Z,100038.06
2022-08-14T08:23:00.448Z,100030.78
2022-08-14T08:25:40.080Z,100028.91
2022-08-14T08:28:22.133Z,100036.94
2022-08-14T08:31:00.043Z,100049.50
2022-08-14T08:33:31.740Z,100055.94
2022-08-14T08:36:01.720Z,100054.81
2022-08-14T08:39:16.676Z,100052.06
2022-08-14T08:41:16.832Z,100050.81
2022-08-14T08:43:46.723Z,100046.53
2022-08-14T08:46:21.486Z,100056.00
2022-08-14T08:51:30.755Z,100037.06
2022-08-14T08:54:06.196Z,100024.34
2022-08-14T08:56:39.901Z,100009.78
2022-08-14T08:59:31.698Z,100029.22
2022-08-14T09:02:06.771Z,100032.56
2022-08-14T09:04:45.489Z,100030.63
2022-08-14T09:07:27.336Z,100032.94
2022-08-14T09:09:58.655Z,100028.94
2022-08-14T09:12:33.481Z,100027.09
2022-08-14T09:15:02.576Z,100008.97
2022-08-14T09:17:29.988Z,100006.44
2022-08-14T09:19:57.713Z,99998.09
2022-08-14T09:22:35.743Z,100007.50
2022-08-14T09:25:07.126Z,100020.00
2022-08-14T09:27:37.112Z,100021.38
2022-08-14T09:30:12.633Z,100018.38
2022-08-14T09:33:10.804Z,100024.22
2022-08-14T09:35:45.794Z,100021.91
2022-08-14T09:38:26.044Z,100022.16
2022-08-14T09:41:00.939Z,100021.22
2022-08-14T09:43:29.869Z,100022.63
2022-08-14T09:46:02.495Z,100019.75
2022-08-14T09:48:31.245Z,100012.53
2022-08-14T09:54:18.181Z,100016.22
2022-08-14T09:56:51.691Z,100004.53
2022-08-14T09:59:28.284Z,100008.38
2022-08-14T10:01:59.731Z,100008.28
2022-08-14T10:04:33.818Z,100015.41
2022-08-14T10:07:05.817Z,100011.13
2022-08-14T10:09:35.228Z,100006.72
2022-08-14T10:12:04.823Z,100005.63
2022-08-14T10:14:36.579Z,100002.94
2022-08-14T10:17:08.570Z,100003.53
2022-08-14T10:19:48.091Z,100006.19
2022-08-14T10:23:22.233Z,100011.84
2022-08-14T10:25:14.338Z,100018.06
2022-08-14T10:27:47.227Z,100005.28
2022-08-14T10:30:22.362Z,100018.16
2022-08-14T10:32:55.574Z,100016.50
2022-08-14T10:35:23.353Z,100024.50
2022-08-14T10:38:01.357Z,100027.72
2022-08-14T10:40:37.530Z,100030.25
2022-08-14T10:43:26.677Z,100049.78
2022-08-14T10:45:59.931Z,100042.75
2022-08-14T10:49:00.846Z,100042.19
2022-08-14T10:51:34.267Z,100037.63
2022-08-14T10:54:16.939Z,100031.22
2022-08-14T10:57:18.791Z,100030.38
2022-08-14T10:59:50.309Z,100028.22
2022-08-14T11:02:35.804Z,100034.78
2022-08-14T11:05:13.498Z,100037.59
2022-08-14T11:07:56.476Z,100025.78
2022-08-14T11:10:46.009Z,100031.47
2022-08-14T11:13:23.918Z,100026.63
2022-08-14T11:15:52.807Z,100038.09
2022-08-14T11:18:32.269Z,100039.06
2022-08-14T11:21:09.360Z,100029.56
2022-08-14T11:23:43.846Z,100043.31
2022-08-14T11:26:18.932Z,100042.72
2022-08-14T11:28:50.167Z,100037.97
2022-08-14T11:31:22.128Z,100028.13
2022-08-14T11:33:57.864Z,100024.84
2022-08-14T11:36:35.267Z,100020.72
2022-08-14T11:39:33.548Z,100029.03
2022-08-14T11:42:55.612Z,100031.91
2022-08-14T11:44:53.739Z,100039.59
2022-08-14T11:47:24.766Z,100043.66
2022-08-14T11:49:52.315Z,100055.00
2022-08-14T11:52:19.638Z,100045.56
2022-08-14T11:54:58.214Z,100044.59
2022-08-14T11:57:26.199Z,100054.88
2022-08-14T12:00:08.391Z,100055.13
2022-08-14T12:03:02.723Z,100058.97
2022-08-14T12:05:39.915Z,100061.13
2022-08-14T12:08:11.154Z,100068.03
2022-08-14T12:10:43.306Z,100064.44
2022-08-14T12:13:17.537Z,100061.72
2022-08-14T12:15:49.632Z,100075.78
2022-08-14T12:18:29.972Z,100066.78
2022-08-14T12:20:59.947Z,100070.78
2022-08-14T12:23:27.660Z,100080.53
2022-08-14T12:26:12.125Z,100076.09
2022-08-14T12:29:13.058Z,100079.59
2022-08-14T12:31:47.418Z,100079.09
2022-08-14T12:34:22.880Z,100087.66
2022-08-14T12:37:08.050Z,100090.19
2022-08-14T12:39:39.760Z,100089.72
2022-08-14T12:42:09.209Z,100097.84
2022-08-14T12:44:42.927Z,100099.19
2022-08-14T12:47:15.275Z,100102.78
2022-08-14T12:49:57.782Z,100106.22
2022-08-14T12:52:45.200Z,100107.22
2022-08-14T12:55:32.528Z,100098.41
2022-08-14T12:58:35.072Z,100093.91
2022-08-14T13:01:17.195Z,100083.81
2022-08-14T13:03:51.683Z,100075.09
2022-08-14T13:06:20.456Z,100080.31
2022-08-14T13:08:53.051Z,100080.63
2022-08-14T13:11:23.906Z,100088.09
2022-08-14T13:13:53.783Z,100074.13
2022-08-14T13:16:38.252Z,100080.34
2022-08-14T13:19:12.097Z,100074.88
2022-08-14T13:22:05.601Z,100067.84
2022-08-14T13:24:33.943Z,100066.38
2022-08-14T13:27:04.291Z,100078.34
2022-08-14T13:29:36.940Z,100059.53
2022-08-14T13:32:05.834Z,100068.44
2022-08-14T13:34:33.944Z,100066.09
2022-08-14T13:37:04.230Z,100065.34
2022-08-14T13:39:32.679Z,100067.50
2022-08-14T13:42:13.432Z,100065.56
2022-08-14T13:44:42.867Z,100055.91
2022-08-14T13:47:12.133Z,100066.34
2022-08-14T13:49:57.205Z,100057.81
2022-08-14T13:52:59.159Z,100052.56
2022-08-14T13:55:16.010Z,100059.22
2022-08-14T13:57:49.776Z,100045.06
2022-08-14T14:00:35.628Z,100048.47
2022-08-14T14:03:06.139Z,100044.06
2022-08-14T14:05:53.151Z,100033.44
2022-08-14T14:08:46.813Z,100034.66
2022-08-14T14:11:11.373Z,100027.97
2022-08-14T14:13:44.650Z,100021.09
2022-08-14T14:16:15.050Z,100026.91
2022-08-14T14:19:00.230Z,100027.38
2022-08-14T14:21:31.510Z,100020.81
2022-08-14T14:24:00.956Z,100016.69
2022-08-14T14:26:29.480Z,100023.38
2022-08-14T14:29:01.736Z,100024.25
2022-08-14T14:31:31.211Z,100013.81
2022-08-14T14:34:12.290Z,100014.06
2022-08-14T14:36:52.420Z,100007.28
2022-08-14T14:39:28.901Z,99998.31
2022-08-14T14:41:59.432Z,100005.56
2022-08-14T14:44:34.581Z,100007.59
2022-08-14T14:47:01.983Z,100002.13
2022-08-14T14:49:51.125Z,100004.09
2022-08-14T14:52:26.781Z,100001.25
2022-08-14T14:54:59.214Z,100008.22
2022-08-14T14:57:35.247Z,100006.13
2022-08-14T15:00:12.594Z,100005.00
2022-08-14T15:02:43.139Z,100012.25
2022-08-14T15:05:12.647Z,100007.81
2022-08-14T15:07:40.381Z,100000.41
2022-08-14T15:10:27.552Z,99989.84
2022-08-14T15:13:00.548Z,99980.53
2022-08-14T15:15:37.474Z,99975.34
2022-08-14T15:18:36.916Z,99982.97
2022-08-14T15:20:57.473Z,99977.41
2022-08-14T15:23:25.367Z,99976.47
2022-08-14T15:26:13.061Z,99969.69
2022-08-14T15:29:02.914Z,99975.44
2022-08-14T15:31:34.662Z,99979.31
2022-08-14T15:34:43.216Z,99971.09
2022-08-14T15:37:00.931Z,99982.16
2022-08-14T15:39:35.490Z,99975.88
2022-08-14T15:42:15.020Z,99969.28
2022-08-14T15:44:56.906Z,99969.09
2022-08-14T15:47:28.934Z,99966.63
2022-08-14T15:50:03.002Z,99965.50
2022-08-14T15:52:35.430Z,99968.19
2022-08-14T15:55:09.159Z,99959.56
2022-08-14T15:57:36.899Z,99966.06
2022-08-14T16:00:44.236Z,99960.81
2022-08-14T16:03:18.114Z,99958.03
2022-08-14T16:05:52.896Z,99950.41
2022-08-14T16:08:29.777Z,99947.56
2022-08-14T16:11:03.628Z,99946.91
2022-08-14T16:13:41.431Z,99940.63
2022-08-14T16:16:49.435Z,99934.91
2022-08-14T16:19:18.312Z,99937.75
2022-08-14T16:22:02.060Z,99938.91
2022-08-14T16:24:35.779Z,99939.22
2022-08-14T16:27:05.372Z,99944.44
2022-08-14T16:29:38.522Z,99943.69
2022-08-14T16:32:32.572Z,99937.38
2022-08-14T16:34:57.358Z,99937.84
2022-08-14T16:37:33.924Z,99936.91
2022-08-14T16:40:02.377Z,99942.03
2022-08-14T16:42:38.925Z,99937.50
2022-08-14T16:45:24.285Z,99936.34
2022-08-14T16:47:51.706Z,99927.06
2022-08-14T16:50:43.481Z,99936.41
2022-08-14T16:53:09.606Z,99942.06
2022-08-14T16:55:53.469Z,99941.44
2022-08-14T16:58:30.278Z,99934.50
2022-08-14T17:01:23.046Z,99931.94
2022-08-14T17:03:56.684Z,99933.88
2022-08-14T17:06:43.069Z,99943.69
2022-08-14T17:09:23.849Z,99946.28
2022-08-14T17:11:58.160Z,99951.19
2022-08-14T17:14:28.432Z,99954.78
2022-08-14T17:16:57.988Z,99956.38
2022-08-14T17:19:25.788Z,99965.84
2022-08-14T17:21:58.535Z,99964.72
2022-08-14T17:24:56.206Z,99980.84
2022-08-14T17:27:18.444Z,100006.38
2022-08-14T17:29:56.760Z,100025.06
2022-08-14T17:32:44.451Z,100026.34
2022-08-14T17:35:16.423Z,100020.47
2022-08-14T17:37:55.604Z,100011.16
2022-08-14T17:40:25.918Z,100002.09
2022-08-14T17:43:01.600Z,100009.81
2022-08-14T17:45:41.275Z,100024.72
2022-08-14T17:49:14.400Z,100023.41
2022-08-14T17:51:23.806Z,100041.41
2022-08-14T17:54:02.956Z,100040.00
2022-08-14T17:56:32.596Z,100038.06
2022-08-14T17:59:06.238Z,100036.34
2022-08-14T18:01:37.322Z,100028.91
2022-08-14T18:04:28.090Z,100016.69
2022-08-14T18:06:57.779Z,100008.16
2022-08-14T18:09:56.148Z,100006.28
2022-08-14T18:12:36.672Z,100007.06
2022-08-14T18:15:14.417Z,100006.53
2022-08-14T18:17:52.561Z,99996.34
2022-08-14T18:21:40.116Z,99989.41
2022-08-14T18:23:13.654Z,99999.88
2022-08-14T18:25:51.646Z,100000.13
2022-08-14T18:28:51.494Z,100008.28
2022-08-14T18:31:20.697Z,100010.56
2022-08-14T18:33:59.669Z,100013.56
2022-08-14T18:36:47.205Z,100006.41
2022-08-14T18:39:29.729Z,100013.19
2022-08-14T18:42:23.976Z,100017.53
2022-08-14T18:44:54.550Z,100013.16
2022-08-14T18:47:23.702Z,100001.75
2022-08-14T18:49:52.841Z,100008.81
2022-08-14T18:52:42.916Z,100019.91
2022-08-14T18:55:20.665Z,100014.72
2022-08-14T18:57:54.676Z,100018.97
2022-08-14T19:00:51.388Z,100024.22
2022-08-14T19:03:22.524Z,100030.88
2022-08-14T19:05:50.880Z,100026.41
2022-08-14T19:08:24.854Z,100030.28
2022-08-14T19:11:03.985Z,100046.00
2022-08-14T19:13:48.142Z,100051.50
2022-08-14T19:16:22.881Z,100051.47
2022-08-14T19:19:00.158Z,100042.28
2022-08-14T19:21:34.364Z,100046.31
2022-08-14T19:24:29.437Z,100053.50
2022-08-14T19:27:24.467Z,100058.00
2022-08-14T19:30:19.603Z,100069.13
2022-08-14T19:32:52.354Z,100070.59
2022-08-14T19:35:48.491Z,100071.38
2022-08-14T19:38:46.422Z,100070.28
2022-08-14T19:41:18.994Z,100079.84
2022-08-14T19:43:56.727Z,100080.16
2022-08-14T19:46:38.757Z,100078.84
2022-08-14T19:49:23.200Z,100079.75
2022-08-14T19:52:03.196Z,100077.63
2022-08-14T19:54:32.445Z,100081.31
2022-08-14T19:57:03.306Z,100080.22
2022-08-14T19:59:36.776Z,100091.47
2022-08-14T20:02:29.921Z,100094.72
2022-08-14T20:04:59.152Z,100095.09
2022-08-14T20:07:59.912Z,100101.47
2022-08-14T20:11:07.095Z,100109.50
2022-08-14T20:13:15.346Z,100099.84
2022-08-14T20:15:51.258Z,100112.19
2022-08-14T20:18:49.041Z,100116.22
2022-08-14T20:21:13.690Z,100107.75
2022-08-14T20:23:42.145Z,100109.00
2022-08-14T20:26:30.549Z,100108.22
2022-08-14T20:29:04.819Z,100107.44
2022-08-14T20:31:37.228Z,100105.81
2022-08-14T20:34:18.970Z,100114.19
2022-08-14T20:37:09.880Z,100105.44
2022-08-14T20:39:40.092Z,100091.28
2022-08-14T20:42:32.222Z,100090.28
2022-08-14T20:45:23.739Z,100087.09
2022-08-14T20:48:01.353Z,100069.53
2022-08-14T20:50:29.994Z,100072.50
2022-08-14T20:53:06.088Z,100064.47
2022-08-14T20:55:41.426Z,100066.44
2022-08-14T20:58:43.990Z,100069.56
2022-08-14T21:01:18.661Z,100059.47
2022-08-14T21:03:57.325Z,100050.94
2022-08-14T21:07:23.939Z,100046.84
2022-08-14T21:10:03.356Z,100043.31
2022-08-14T21:12:34.479Z,100046.66
2022-08-14T21:15:00.880Z,100040.91
2022-08-14T21:17:30.395Z,100038.81
2022-08-14T21:19:57.949Z,100037.75
2022-08-14T21:22:26.857Z,100043.59
2022-08-14T21:25:01.483Z,100050.56
2022-08-14T21:27:37.421Z,100056.66
2022-08-14T21:30:08.478Z,100055.50
2022-08-14T21:32:50.237Z,100060.72
2022-08-14T21:35:25.990Z,100062.97
2022-08-14T21:37:53.778Z,100059.03
2022-08-14T21:40:42.383Z,100062.22
2022-08-14T21:43:17.876Z,100062.72
2022-08-14T21:45:54.063Z,100058.72
2022-08-14T21:48:26.354Z,100063.22
2022-08-14T21:51:01.136Z,100060.72
2022-08-14T21:53:58.369Z,100057.56
2022-08-14T21:56:37.272Z,100064.78
2022-08-14T21:59:09.325Z,100055.06
2022-08-14T22:02:00.277Z,100056.28
2022-08-14T22:04:34.312Z,100065.22
2022-08-14T22:07:10.138Z,100065.59
2022-08-14T22:09:37.747Z,100056.88
2022-08-14T22:12:58.069Z,100052.97
2022-08-14T22:15:01.801Z,100058.16
2022-08-14T22:17:32.347Z,100059.66
2022-08-14T22:20:05.150Z,100057.69
2022-08-14T22:22:32.565Z,100057.84
2022-08-14T22:25:01.072Z,100058.28
2022-08-14T22:27:32.439Z,100056.28
2022-08-14T22:30:02.205Z,100061.91
2022-08-14T22:32:56.751Z,100057.06
2022-08-14T22:35:18.415Z,100052.63
2022-08-14T22:37:46.005Z,100044.63
2022-08-14T22:41:03.177Z,100045.47
2022-08-14T22:43:21.009Z,100049.06
2022-08-14T22:45:55.677Z,100055.88
2022-08-14T22:48:23.498Z,100049.03
2022-08-14T22:50:53.695Z,100051.13
2022-08-14T22:53:22.033Z,100057.09
2022-08-14T22:55:51.944Z,100061.47
2022-08-14T22:58:31.410Z,100052.63
2022-08-14T23:01:07.669Z,100055.91
2022-08-14T23:03:39.732Z,100061.50
2022-08-14T23:07:04.484Z,100063.47
2022-08-14T23:09:35.463Z,100064.66
2022-08-14T23:11:46.913Z,100058.69
2022-08-14T23:14:23.966Z,100058.66
2022-08-14T23:16:57.312Z,100061.88
2022-08-14T23:19:33.662Z,100061.88
2022-08-14T23:22:05.252Z,100059.06
2022-08-14T23:24:34.271Z,100062.59
2022-08-14T23:27:02.768Z,100056.22
2022-08-14T23:29:37.787Z,100054.19
2022-08-14T23:32:15.488Z,100049.78
2022-08-14T23:34:48.247Z,100048.97
2022-08-14T23:37:19.293Z,100043.34
2022-08-14T23:39:54.510Z,100039.69
2022-08-14T23:42:23.349Z,100039.69
2022-08-14T23:45:08.307Z,100038.16
2022-08-14T23:47:51.686Z,100037.03
2022-08-14T23:50:34.374Z,100040.13
2022-08-14T23:53:28.198Z,100041.25
2022-08-14T23:56:14.736Z,100041.19
2022-08-14T23:58:42.226Z,100036.38
